DIRECCIÓN GENERAL DE AERONÁUTICA CIVIL
DIRECCIÓN METEOROLÓGICA DE CHILE
INFORMACIÓN METAR Y TAF

FIR PUERTO MONTT

Estación: SCQP
METAR SCQP 291800Z 01014KT 9999 BKN035TCU 17/11 Q1015=

TAF SCQP 291640Z 2918/3018 36012KT 8000 -SHRA BKN025 BKN060 TX17/2918Z TN09/3010Z TEMPO 2920/3001 4000 SHRA TS BKN015TCU BECMG 3006/3008 9999 02005KT BECMG 3013/3015 29005KT BKN040=

Estación: SCVD
SPECI SCVD 291800Z 34012KT 8000 -RA BKN031 BKN039 14/11 Q1015=

TAF SCVD 291032Z 2912/2924 36010KT 9999 BKN030 TN12/2912Z TX16/2919Z BECMG 2914/2916 6000 SHRA BKN020 BKN040 TEMPO 2918/2924 01015KT 3000 SHRA TS BKN015 BKN020=

Estación: SCJO
METAR SCJO 291800Z 35007KT 9999 BKN030 BKN045 15/08 Q1015 RESHRA=

TAF SCJO 291033Z 2912/2924 02010KT 9999 BKN040 TN11/2912Z TX16/2919Z BECMG 2916/2918 6000 SHRA BKN020 BKN030 TEMPO 2918/2924 36015KT 3000 SHRA TS BKN015 BKN020=

Estación: SCTE
METAR SCTE 291800Z 02009KT 9999 SCT050 BKN070 17/09 Q1015 NOSIG=

TAF SCTE 291640Z 2918/3018 01015KT 9999 -SHRA BKN030 BKN080 TX17/2918Z TN10/3010Z TEMPO 2920/3001 5000 SHRA OVC020 BECMG 3016/3018 27007KT=

Estación: SCPQ
METAR SCPQ 291800Z 34014KT 9999 SCT015 BKN049 14/11 Q1014=

TAF SCPQ 291036Z 2912/2924 36015KT CAVOK TN11/2912Z TX15/2919Z BECMG 2914/2916 BKN040 TEMPO 2920/2924 36020KT 6000 SHRA BKN015 BKN030=

Estación: SCON
METAR SCON 291800Z 07009KT 030V090 9999 BKN030 19/13 Q1014=

TAF SCON NIL=

Estación: SCTN
METAR SCTN 291800Z 34008KT 9999 FEW015 BKN070 OVC110 16/09 Q1014=

TAF SCTN 291035Z 2912/2924 VRB02KT CAVOK TN08/2912Z TX16/2919Z BECMG 2918/2920 29007KT BKN040 TEMPO 2922/2924 6000 SHRA BKN015 BKN030=

Estación: SCFT
METAR SCFT 291800Z VRB03KT CAVOK 20/03 Q1014=

TAF SCFT NIL=

Estación: SCAP
METAR SCAP 291800Z 26009KT CAVOK 21/03 Q1019=

TAF SCAP NIL=

Estación: SCMK
METAR SCMK 291800Z 01008KT CAVOK 14/10 Q1014=

TAF SCMK 291037Z 2912/2924 01015KT CAVOK TN11/2912Z TX14/2919Z BECMG 2916/2918 BKN040 TEMPO 2920/2924 36020KT 6000 SHRA BKN015 BKN030=

Estación: SCAS
METAR SCAS 291800Z 25008KT CAVOK 18/06 Q1014=

TAF SCAS NIL=

Estación: SCCY
METAR SCCY 291800Z VRB03KT CAVOK 18/02 Q1014=

TAF SCCY 291038Z 2912/2924 00000KT CAVOK TN02/2912Z TX17/2919Z BECMG 2916/2918 29007KT BECMG 2918/2920 BKN050=

Estación: SCBA
METAR SCBA 291800Z VRB03KT CAVOK 19/M01 Q1014=

TAF SCBA 291645Z 2918/3018 30005KT CAVOK TX16/2919Z TN03/3010Z BECMG 3000/3002 9999 BKN060 TEMPO 3006/3012 7000 -SHRA BKN030 BECMG 3015/3017 29010KT=

Estación: SCCC
METAR SCCC 291800Z 32006KT CAVOK 15/M02 Q1015=

TAF SCCC NIL=

Estación: SCHR
METAR SCHR 291800Z 27005KT CAVOK 20/02 Q1011=

TAF SCHR 291044Z 2912/3000 VRB03KT FEW040 TN04/2912Z TX16/2918Z=


Volver